Terminal Aerodrome Forecast
Issued by NWS Milwaukee/Sullivan, WI

Home | Current Version | Previous Version | Text Only | Print | Product List | Glossary On
Versions: 1 2 3 4 5 6 7 8 9 10 11 12 13 14 15 16 17 18 19 20 21 22 23 24 25 26 27 28 29 30 31 32 33 34 35 36 37 38 39 40 41 42 43 44 45 46 47 48 49 50
000
FTUS43 KMKX 060305 AAA
TAFMKE
TAF AMD
KMKE 060305Z 0603/0706 05006KT P6SM SCT017 OVC090
      TEMPO 0603/0605 -SHRA
     FM060700 06004KT 5SM BR OVC010
     FM061000 06004KT 2SM BR OVC003
      TEMPO 0610/0614 1SM BR
     FM061600 08005KT 3SM BR BKN008
     FM061800 11006KT 5SM BR BKN025
     FM062000 10006KT P6SM SCT035=

USA.gov is the U.S. government's official web portal to all federal, state and local government web resources and services.